createdAt,value
2023-03-11T00:00:36.352Z,98736.38
2023-03-11T00:03:04.376Z,98754.44
2023-03-11T00:05:33.709Z,98731.63
2023-03-11T00:08:01.084Z,98744.09
2023-03-11T00:10:32.696Z,98722.81
2023-03-11T00:13:00.159Z,98720.75
2023-03-11T00:15:27.812Z,98735.81
2023-03-11T00:17:54.799Z,98723.19
2023-03-11T00:20:26.087Z,98719.16
2023-03-11T00:22:53.157Z,98731.63
2023-03-11T00:25:20.506Z,98716.69
2023-03-11T00:27:47.331Z,98726.31
2023-03-11T00:30:15.260Z,98719.81
2023-03-11T00:32:42.120Z,98723.63
2023-03-11T00:35:11.897Z,98718.03
2023-03-11T00:37:38.698Z,98721.56
2023-03-11T00:40:09.017Z,98718.84
2023-03-11T00:42:35.799Z,98695.66
2023-03-11T00:45:02.647Z,98711.09
2023-03-11T00:47:29.434Z,98717.09
2023-03-11T00:49:56.214Z,98722.25
2023-03-11T00:52:22.994Z,98710.56
2023-03-11T00:54:49.781Z,98713.69
2023-03-11T00:57:16.549Z,98714.78
2023-03-11T00:59:43.357Z,98714.53
2023-03-11T01:02:10.146Z,98715.34
2023-03-11T01:04:36.972Z,98698.78
2023-03-11T01:07:03.899Z,98704.31
2023-03-11T01:09:30.734Z,98695.91
2023-03-11T01:11:57.555Z,98702.69
2023-03-11T01:14:24.353Z,98704.59
2023-03-11T01:16:51.177Z,98703.13
2023-03-11T01:19:18.103Z,98710.88
2023-03-11T01:21:44.893Z,98714.25
2023-03-11T01:24:11.776Z,98715.88
2023-03-11T01:26:38.606Z,98725.22
2023-03-11T01:29:05.464Z,98705.97
2023-03-11T01:31:32.272Z,98701.75
2023-03-11T01:33:59.014Z,98694.31
2023-03-11T01:36:25.822Z,98696.03
2023-03-11T01:38:52.612Z,98708.00
2023-03-11T01:41:19.412Z,98701.19
2023-03-11T01:43:46.136Z,98707.75
2023-03-11T01:46:18.598Z,98705.97
2023-03-11T01:48:58.612Z,98692.00
2023-03-11T01:51:33.689Z,98697.53
2023-03-11T01:54:03.192Z,98690.22
2023-03-11T01:56:30.019Z,98696.88
2023-03-11T01:58:56.851Z,98693.75
2023-03-11T02:01:23.748Z,98700.41
2023-03-11T02:03:50.608Z,98704.88
2023-03-11T02:06:19.999Z,98697.41
2023-03-11T02:08:46.828Z,98699.03
2023-03-11T02:11:28.016Z,98696.72
2023-03-11T02:13:55.999Z,98681.41
2023-03-11T02:16:22.839Z,98703.38
2023-03-11T02:18:49.657Z,98695.66
2023-03-11T02:21:26.815Z,98705.97
2023-03-11T02:23:56.376Z,98693.88
2023-03-11T02:26:46.997Z,98704.47
2023-03-11T02:29:13.797Z,98695.53
2023-03-11T02:31:42.845Z,98709.09
2023-03-11T02:34:16.638Z,98699.72
2023-03-11T02:36:43.559Z,98704.72
2023-03-11T02:39:10.559Z,98709.50
2023-03-11T02:41:39.218Z,98702.84
2023-03-11T02:44:08.285Z,98700.38
2023-03-11T02:46:36.213Z,98713.81
2023-03-11T02:49:03.156Z,98702.16
2023-03-11T02:51:29.924Z,98716.13
2023-03-11T02:53:58.287Z,98713.72
2023-03-11T02:56:25.407Z,98722.94
2023-03-11T02:58:52.435Z,98721.44
2023-03-11T03:01:19.238Z,98724.72
2023-03-11T03:03:46.105Z,98721.03
2023-03-11T03:06:13.053Z,98726.47
2023-03-11T03:08:39.838Z,98729.19
2023-03-11T03:11:06.734Z,98737.63
2023-03-11T03:13:33.611Z,98735.03
2023-03-11T03:16:00.631Z,98714.13
2023-03-11T03:18:27.517Z,98707.31
2023-03-11T03:20:54.351Z,98728.38
2023-03-11T03:23:21.114Z,98737.03
2023-03-11T03:25:47.952Z,98736.13
2023-03-11T03:28:14.758Z,98739.34
2023-03-11T03:30:41.612Z,98732.19
2023-03-11T03:33:08.495Z,98732.72
2023-03-11T03:35:35.365Z,98726.88
2023-03-11T03:38:02.170Z,98731.34
2023-03-11T03:40:29.016Z,98742.09
2023-03-11T03:42:55.812Z,98744.13
2023-03-11T03:45:22.613Z,98729.06
2023-03-11T03:47:49.424Z,98733.91
2023-03-11T03:50:16.214Z,98738.97
2023-03-11T03:52:42.991Z,98739.06
2023-03-11T03:55:10.088Z,98752.53
2023-03-11T03:57:36.879Z,98749.94
2023-03-11T04:00:04.917Z,98746.00
2023-03-11T04:02:31.942Z,98743.69
2023-03-11T04:04:58.901Z,98761.22
2023-03-11T04:07:25.725Z,98753.63
2023-03-11T04:09:52.528Z,98755.50
2023-03-11T04:12:19.321Z,98765.00
2023-03-11T04:14:46.097Z,98768.94
2023-03-11T04:17:13.769Z,98761.38
2023-03-11T04:19:40.643Z,98769.22
2023-03-11T04:22:07.419Z,98764.31
2023-03-11T04:24:34.200Z,98784.69
2023-03-11T04:27:00.995Z,98767.75
2023-03-11T04:29:27.776Z,98776.97
2023-03-11T04:31:54.657Z,98768.56
2023-03-11T04:34:21.456Z,98763.13
2023-03-11T04:36:48.242Z,98782.25
2023-03-11T04:39:15.452Z,98789.19
2023-03-11T04:41:42.295Z,98775.31
2023-03-11T04:44:09.093Z,98788.38
2023-03-11T04:46:35.941Z,98795.56
2023-03-11T04:49:02.731Z,98805.75
2023-03-11T04:51:29.530Z,98803.31
2023-03-11T04:53:56.357Z,98808.56
2023-03-11T04:56:23.309Z,98815.09
2023-03-11T04:58:50.468Z,98801.66
2023-03-11T05:01:17.267Z,98802.59
2023-03-11T05:03:44.109Z,98809.38
2023-03-11T05:06:10.871Z,98806.53
2023-03-11T05:08:37.669Z,98823.09
2023-03-11T05:11:04.656Z,98823.25
2023-03-11T05:13:31.455Z,98812.22
2023-03-11T05:15:58.259Z,98822.44
2023-03-11T05:18:25.196Z,98814.81
2023-03-11T05:20:52.310Z,98824.19
2023-03-11T05:23:19.391Z,98826.78
2023-03-11T05:25:46.279Z,98832.75
2023-03-11T05:28:13.030Z,98835.19
2023-03-11T05:30:39.794Z,98840.06
2023-03-11T05:33:06.647Z,98828.00
2023-03-11T05:35:33.452Z,98848.78
2023-03-11T05:38:00.239Z,98837.75
2023-03-11T05:40:27.036Z,98833.69
2023-03-11T05:42:53.821Z,98854.88
2023-03-11T05:45:20.670Z,98859.91
2023-03-11T05:47:47.475Z,98859.91
2023-03-11T05:50:14.440Z,98864.91
2023-03-11T05:52:41.300Z,98871.97
2023-03-11T05:55:10.016Z,98877.00
2023-03-11T05:57:36.855Z,98874.00
2023-03-11T06:00:07.233Z,98883.78
2023-03-11T06:02:34.074Z,98891.38
2023-03-11T06:05:01.084Z,98898.84
2023-03-11T06:07:27.919Z,98904.00
2023-03-11T06:09:54.730Z,98905.63
2023-03-11T06:12:21.510Z,98923.31
2023-03-11T06:14:48.397Z,98913.25
2023-03-11T06:17:15.190Z,98925.63
2023-03-11T06:19:42.030Z,98933.50
2023-03-11T06:22:08.811Z,98946.94
2023-03-11T06:24:36.271Z,98927.50
2023-03-11T06:27:03.258Z,98950.06
2023-03-11T06:29:30.138Z,98951.59
2023-03-11T06:31:56.972Z,98948.31
2023-03-11T06:34:24.081Z,98938.00
2023-03-11T06:36:50.896Z,98953.66
2023-03-11T06:39:17.718Z,98959.47
2023-03-11T06:41:44.544Z,98966.16
2023-03-11T06:44:11.396Z,98962.06
2023-03-11T06:46:38.273Z,98961.94
2023-03-11T06:49:05.093Z,98975.97
2023-03-11T06:51:31.899Z,98981.22
2023-03-11T06:53:58.715Z,98987.34
2023-03-11T06:56:25.656Z,98980.31
2023-03-11T06:58:53.368Z,98993.31
2023-03-11T07:01:24.739Z,98994.84
2023-03-11T07:03:51.699Z,99005.16
2023-03-11T07:06:20.841Z,99011.13
2023-03-11T07:08:48.652Z,99003.78
2023-03-11T07:11:23.535Z,99028.25
2023-03-11T07:13:50.601Z,99014.78
2023-03-11T07:16:19.493Z,99023.34
2023-03-11T07:18:46.986Z,99019.28
2023-03-11T07:21:15.116Z,99039.81
2023-03-11T07:23:42.079Z,99042.16
2023-03-11T07:26:10.596Z,99039.97
2023-03-11T07:28:37.741Z,99054.44
2023-03-11T07:31:12.335Z,99057.63
2023-03-11T07:33:39.173Z,99061.97
2023-03-11T07:36:16.435Z,99070.72
2023-03-11T07:38:43.772Z,99074.25
2023-03-11T07:41:11.546Z,99068.13
2023-03-11T07:43:38.595Z,99070.31
2023-03-11T07:46:06.365Z,99072.63
2023-03-11T07:48:33.478Z,99075.34
2023-03-11T07:51:10.160Z,99082.97
2023-03-11T07:53:36.935Z,99093.16
2023-03-11T07:56:04.401Z,99096.16
2023-03-11T07:58:31.203Z,99106.22
2023-03-11T08:01:06.961Z,99095.19
2023-03-11T08:03:34.974Z,99108.66
2023-03-11T08:06:01.869Z,99122.94
2023-03-11T08:08:28.673Z,99127.31
2023-03-11T08:10:55.456Z,99136.56
2023-03-11T08:13:22.239Z,99139.41
2023-03-11T08:15:49.044Z,99137.63
2023-03-11T08:18:16.988Z,99144.31
2023-03-11T08:20:45.476Z,99148.78
2023-03-11T08:23:12.402Z,99151.25
2023-03-11T08:25:40.133Z,99159.16
2023-03-11T08:28:07.850Z,99165.03
2023-03-11T08:30:35.066Z,99171.56
2023-03-11T08:33:01.831Z,99178.09
2023-03-11T08:35:28.650Z,99186.66
2023-03-11T08:37:55.434Z,99181.13
2023-03-11T08:40:22.232Z,99187.91
2023-03-11T08:42:49.152Z,99193.50
2023-03-11T08:45:16.112Z,99200.03
2023-03-11T08:47:43.133Z,99196.53
2023-03-11T08:50:13.736Z,99189.88
2023-03-11T08:52:40.583Z,99201.72
2023-03-11T08:55:09.010Z,99202.72
2023-03-11T08:57:35.893Z,99201.34
2023-03-11T09:00:02.789Z,99209.00
2023-03-11T09:02:29.686Z,99215.53
2023-03-11T09:04:56.452Z,99219.75
2023-03-11T09:07:23.231Z,99213.50
2023-03-11T09:09:50.051Z,99215.66
2023-03-11T09:12:16.889Z,99233.66
2023-03-11T09:14:43.954Z,99229.56
2023-03-11T09:17:12.149Z,99240.84
2023-03-11T09:19:39.081Z,99246.75
2023-03-11T09:22:06.010Z,99261.34
2023-03-11T09:24:35.671Z,99260.78
2023-03-11T09:27:02.597Z,99267.47
2023-03-11T09:29:29.640Z,99268.56
2023-03-11T09:31:56.483Z,99274.94
2023-03-11T09:34:23.391Z,99285.19
2023-03-11T09:36:50.219Z,99275.22
2023-03-11T09:39:16.982Z,99286.25
2023-03-11T09:42:02.753Z,99309.03
2023-03-11T09:44:42.497Z,99310.28
2023-03-11T09:47:18.208Z,99309.03
2023-03-11T09:50:04.844Z,99318.72
2023-03-11T09:52:43.263Z,99321.03
2023-03-11T09:55:23.320Z,99328.94
2023-03-11T09:57:50.128Z,99316.94
2023-03-11T10:00:18.713Z,99328.22
2023-03-11T10:02:45.682Z,99330.97
2023-03-11T10:05:27.089Z,99333.94
2023-03-11T10:08:14.998Z,99338.97
2023-03-11T10:10:48.420Z,99344.56
2023-03-11T10:13:38.570Z,99358.34
2023-03-11T10:16:27.106Z,99356.84
2023-03-11T10:18:53.880Z,99369.53
2023-03-11T10:21:39.104Z,99367.81
2023-03-11T10:24:17.347Z,99384.03
2023-03-11T10:26:47.215Z,99376.13
2023-03-11T10:29:20.928Z,99373.75
2023-03-11T10:31:58.101Z,99380.22
2023-03-11T10:34:27.192Z,99386.25
2023-03-11T10:37:05.022Z,99392.28
2023-03-11T10:39:32.013Z,99383.25
2023-03-11T10:42:06.134Z,99388.44
2023-03-11T10:44:38.096Z,99390.19
2023-03-11T10:47:05.085Z,99388.13
2023-03-11T10:49:31.898Z,99393.28
2023-03-11T10:51:58.798Z,99385.06
2023-03-11T10:54:57.977Z,99403.41
2023-03-11T10:57:26.709Z,99399.56
2023-03-11T10:59:57.567Z,99414.13
2023-03-11T11:02:32.721Z,99411.47
2023-03-11T11:05:17.955Z,99430.53
2023-03-11T11:07:48.492Z,99427.81
2023-03-11T11:10:19.474Z,99444.00
2023-03-11T11:13:17.711Z,99438.72
2023-03-11T11:16:06.548Z,99449.38
2023-03-11T11:18:51.922Z,99454.00
2023-03-11T11:21:37.956Z,99452.38
2023-03-11T11:24:15.705Z,99452.75
2023-03-11T11:26:42.562Z,99451.81
2023-03-11T11:29:12.509Z,99454.94
2023-03-11T11:31:44.191Z,99467.97
2023-03-11T11:34:33.436Z,99479.78
2023-03-11T11:37:02.156Z,99465.09
2023-03-11T11:39:30.895Z,99472.00
2023-03-11T11:41:57.706Z,99465.00
2023-03-11T11:44:31.588Z,99485.13
2023-03-11T11:47:19.234Z,99479.88
2023-03-11T11:50:05.280Z,99487.25
2023-03-11T11:52:35.326Z,99489.66
2023-03-11T11:55:11.476Z,99489.34
2023-03-11T11:57:38.362Z,99465.19
2023-03-11T12:00:20.288Z,99496.59
2023-03-11T12:03:12.817Z,99476.06
2023-03-11T12:06:00.632Z,99496.56
2023-03-11T12:09:05.743Z,99504.31
2023-03-11T12:12:01.168Z,99511.88
2023-03-11T12:14:38.887Z,99511.59
2023-03-11T12:17:05.718Z,99511.16
2023-03-11T12:20:06.037Z,99529.88
2023-03-11T12:23:00.836Z,99537.25
2023-03-11T12:25:46.139Z,99549.91
2023-03-11T12:28:20.284Z,99559.69
2023-03-11T12:30:50.563Z,99562.47
2023-03-11T12:33:55.649Z,99564.25
2023-03-11T12:36:40.824Z,99568.75
2023-03-11T12:39:31.467Z,99572.84
2023-03-11T12:42:18.144Z,99580.41
2023-03-11T12:44:45.519Z,99577.91
2023-03-11T12:47:12.261Z,99578.47
2023-03-11T12:49:46.549Z,99581.69
2023-03-11T12:52:16.097Z,99580.78
2023-03-11T12:55:10.481Z,99597.75
2023-03-11T12:57:40.793Z,99587.09
2023-03-11T13:00:32.876Z,99599.16
2023-03-11T13:03:37.395Z,99587.19
2023-03-11T13:06:07.203Z,99596.03
2023-03-11T13:08:51.657Z,99593.53
2023-03-11T13:11:39.020Z,99603.38
2023-03-11T13:14:34.765Z,99605.34
2023-03-11T13:17:24.565Z,99608.94
2023-03-11T13:19:58.059Z,99615.34
2023-03-11T13:22:54.064Z,99627.28
2023-03-11T13:25:33.045Z,99639.06
2023-03-11T13:28:08.196Z,99635.53
2023-03-11T13:30:38.440Z,99636.84
2023-03-11T13:33:29.692Z,99643.50
2023-03-11T13:36:21.985Z,99642.13
2023-03-11T13:39:11.271Z,99651.81
2023-03-11T13:41:38.083Z,99648.78
2023-03-11T13:44:28.689Z,99671.44
2023-03-11T13:47:16.386Z,99669.25
2023-03-11T13:50:03.702Z,99683.56
2023-03-11T13:52:42.177Z,99682.56
2023-03-11T13:55:27.886Z,99684.13
2023-03-11T13:57:55.945Z,99686.66
2023-03-11T14:00:28.558Z,99696.34
2023-03-11T14:03:00.150Z,99693.03
2023-03-11T14:05:33.515Z,99710.56
2023-03-11T14:08:24.545Z,99709.97
2023-03-11T14:11:12.481Z,99722.16
2023-03-11T14:13:43.779Z,99720.44
2023-03-11T14:16:24.934Z,99719.50
2023-03-11T14:19:21.236Z,99724.06
2023-03-11T14:21:50.636Z,99714.19
2023-03-11T14:24:23.396Z,99720.72
2023-03-11T14:26:55.798Z,99733.63
2023-03-11T14:29:42.161Z,99751.34
2023-03-11T14:32:28.587Z,99736.13
2023-03-11T14:34:56.025Z,99737.06
2023-03-11T14:37:42.961Z,99744.59
2023-03-11T14:40:28.468Z,99748.34
2023-03-11T14:42:56.988Z,99751.28
2023-03-11T14:45:25.299Z,99756.44
2023-03-11T14:48:29.351Z,99756.50
2023-03-11T14:50:57.409Z,99746.72
2023-03-11T14:53:25.413Z,99781.84
2023-03-11T14:55:55.984Z,99764.00
2023-03-11T14:59:08.111Z,99778.94
2023-03-11T15:01:42.546Z,99774.53
2023-03-11T15:04:31.550Z,99789.50
2023-03-11T15:06:58.427Z,99791.06
2023-03-11T15:09:25.331Z,99800.09
2023-03-11T15:11:58.339Z,99804.06
2023-03-11T15:14:33.200Z,99804.72
2023-03-11T15:17:42.789Z,99817.00
2023-03-11T15:20:26.967Z,99798.63
2023-03-11T15:23:00.986Z,99815.22
2023-03-11T15:25:30.161Z,99822.03
2023-03-11T15:27:57.023Z,99825.91
2023-03-11T15:30:29.009Z,99828.66
2023-03-11T15:32:56.402Z,99826.97
2023-03-11T15:35:27.915Z,99825.59
2023-03-11T15:38:20.869Z,99852.56
2023-03-11T15:41:01.708Z,99831.97
2023-03-11T15:43:30.135Z,99842.63
2023-03-11T15:45:57.821Z,99854.16
2023-03-11T15:48:24.901Z,99833.84
2023-03-11T15:50:54.429Z,99861.38
2023-03-11T15:53:22.257Z,99857.91
2023-03-11T15:55:49.173Z,99859.88
2023-03-11T15:58:16.833Z,99856.31
2023-03-11T16:00:51.773Z,99869.63
2023-03-11T16:03:18.760Z,99873.66
2023-03-11T16:05:46.157Z,99871.41
2023-03-11T16:08:13.020Z,99877.31
2023-03-11T16:10:39.860Z,99874.75
2023-03-11T16:13:06.639Z,99871.06
2023-03-11T16:15:35.602Z,99882.69
2023-03-11T16:18:03.926Z,99897.44
2023-03-11T16:20:37.505Z,99899.00
2023-03-11T16:23:04.296Z,99910.63
2023-03-11T16:25:33.576Z,99906.53
2023-03-11T16:28:00.634Z,99909.97
2023-03-11T16:30:28.916Z,99922.72
2023-03-11T16:32:55.918Z,99923.69
2023-03-11T16:35:22.867Z,99920.75
2023-03-11T16:37:49.705Z,99928.72
2023-03-11T16:40:18.800Z,99938.88
2023-03-11T16:42:45.949Z,99925.97
2023-03-11T16:45:13.206Z,99941.97
2023-03-11T16:47:39.960Z,99935.16
2023-03-11T16:50:07.240Z,99956.56
2023-03-11T16:52:34.158Z,99950.72
2023-03-11T16:55:01.093Z,99961.78
2023-03-11T16:57:27.934Z,99963.41
2023-03-11T16:59:55.033Z,99971.16
2023-03-11T17:02:24.382Z,99975.03
2023-03-11T17:04:51.505Z,99973.66
2023-03-11T17:07:18.329Z,99969.53
2023-03-11T17:09:45.132Z,99966.44
2023-03-11T17:12:15.781Z,99973.16
2023-03-11T17:14:42.696Z,99986.19
2023-03-11T17:17:09.594Z,99987.56
2023-03-11T17:19:36.350Z,99989.31
2023-03-11T17:22:03.236Z,99993.97
2023-03-11T17:24:30.239Z,99998.00
2023-03-11T17:26:57.102Z,99998.53
2023-03-11T17:29:24.018Z,99993.41
2023-03-11T17:31:50.851Z,99998.00
2023-03-11T17:34:17.768Z,100009.13
2023-03-11T17:36:44.590Z,100011.25
2023-03-11T17:39:11.395Z,100015.47
2023-03-11T17:41:38.291Z,100014.09
2023-03-11T17:44:05.249Z,100008.28
2023-03-11T17:46:32.113Z,100024.75
2023-03-11T17:48:58.993Z,100012.31
2023-03-11T17:51:26.284Z,100014.22
2023-03-11T17:53:54.531Z,100023.16
2023-03-11T17:56:21.679Z,100021.91
2023-03-11T17:58:49.045Z,100016.84
2023-03-11T18:01:23.625Z,100018.00
2023-03-11T18:03:50.565Z,100021.81
2023-03-11T18:06:18.070Z,100025.03
2023-03-11T18:08:44.875Z,100034.59
2023-03-11T18:11:16.389Z,100043.78
2023-03-11T18:13:44.429Z,100035.41
2023-03-11T18:16:16.160Z,100038.53
2023-03-11T18:18:43.057Z,100042.97
2023-03-11T18:21:14.698Z,100049.25
2023-03-11T18:23:41.769Z,100032.03
2023-03-11T18:26:09.232Z,100046.13
2023-03-11T18:28:36.211Z,100041.31
2023-03-11T18:31:10.733Z,100051.19
2023-03-11T18:33:37.777Z,100042.41
2023-03-11T18:36:12.551Z,100047.88
2023-03-11T18:38:39.483Z,100040.75
2023-03-11T18:41:06.290Z,100040.13
2023-03-11T18:43:33.197Z,100046.13
2023-03-11T18:46:00.883Z,100042.22
2023-03-11T18:48:27.972Z,100049.94
2023-03-11T18:50:54.949Z,100044.28
2023-03-11T18:53:21.851Z,100049.94
2023-03-11T18:55:48.775Z,100039.97
2023-03-11T18:58:15.530Z,100053.38
2023-03-11T19:00:42.336Z,100054.03
2023-03-11T19:03:11.225Z,100058.19
2023-03-11T19:05:38.206Z,100050.50
2023-03-11T19:08:05.332Z,100048.03
2023-03-11T19:10:32.199Z,100055.53
2023-03-11T19:12:58.943Z,100051.16
2023-03-11T19:15:25.712Z,100063.75
2023-03-11T19:18:05.873Z,100068.00
2023-03-11T19:20:33.994Z,100057.06
2023-03-11T19:23:00.798Z,100071.28
2023-03-11T19:25:28.054Z,100071.28
2023-03-11T19:27:55.402Z,100077.50
2023-03-11T19:30:22.267Z,100079.28
2023-03-11T19:32:52.780Z,100083.38
2023-03-11T19:35:23.267Z,100075.16
2023-03-11T19:37:50.404Z,100083.59
2023-03-11T19:40:17.508Z,100075.84
2023-03-11T19:42:44.404Z,100080.16
2023-03-11T19:45:11.638Z,100076.91
2023-03-11T19:47:39.149Z,100082.78
2023-03-11T19:50:06.456Z,100084.63
2023-03-11T19:52:35.696Z,100082.78
2023-03-11T19:55:02.732Z,100083.59
2023-03-11T19:57:29.549Z,100077.06
2023-03-11T19:59:56.394Z,100083.69
2023-03-11T20:02:23.214Z,100081.13
2023-03-11T20:04:50.115Z,100080.81
2023-03-11T20:07:16.951Z,100084.28
2023-03-11T20:09:43.708Z,100085.09
2023-03-11T20:12:10.490Z,100099.19
2023-03-11T20:14:37.287Z,100091.50
2023-03-11T20:17:04.126Z,100093.16
2023-03-11T20:19:30.913Z,100086.22
2023-03-11T20:21:57.961Z,100084.53
2023-03-11T20:24:24.879Z,100082.97
2023-03-11T20:26:51.700Z,100088.00
2023-03-11T20:29:18.746Z,100089.75
2023-03-11T20:31:45.658Z,100090.66
2023-03-11T20:34:12.909Z,100081.38
2023-03-11T20:36:39.748Z,100079.38
2023-03-11T20:39:09.972Z,100081.13
2023-03-11T20:41:38.371Z,100092.88
2023-03-11T20:44:06.701Z,100087.00
2023-03-11T20:46:34.147Z,100075.31
2023-03-11T20:49:01.849Z,100074.50
2023-03-11T20:51:28.759Z,100081.13
2023-03-11T20:53:55.647Z,100071.94
2023-03-11T20:56:24.009Z,100081.13
2023-03-11T20:58:51.360Z,100071.84
2023-03-11T21:01:26.819Z,100069.38
2023-03-11T21:03:54.681Z,100064.16
2023-03-11T21:06:26.642Z,100055.88
2023-03-11T21:08:57.123Z,100056.75
2023-03-11T21:11:24.083Z,100064.25
2023-03-11T21:13:51.052Z,100054.66
2023-03-11T21:16:18.208Z,100046.53
2023-03-11T21:18:46.208Z,100035.75
2023-03-11T21:21:15.647Z,100045.88
2023-03-11T21:23:43.984Z,100036.44
2023-03-11T21:26:12.280Z,100031.16
2023-03-11T21:28:40.122Z,100035.38
2023-03-11T21:31:10.995Z,100017.44
2023-03-11T21:33:38.906Z,100025.91
2023-03-11T21:36:06.565Z,100027.69
2023-03-11T21:38:33.999Z,100030.16
2023-03-11T21:41:17.251Z,100033.59
2023-03-11T21:43:44.630Z,100032.34
2023-03-11T21:46:13.342Z,100031.06
2023-03-11T21:48:40.192Z,100027.19
2023-03-11T21:51:07.010Z,100035.44
2023-03-11T21:53:34.073Z,100028.13
2023-03-11T21:56:01.423Z,100040.91
2023-03-11T21:58:28.404Z,100040.09
2023-03-11T22:00:55.410Z,100043.34
2023-03-11T22:03:22.532Z,100022.09
2023-03-11T22:05:49.421Z,100016.22
2023-03-11T22:08:16.356Z,100006.19
2023-03-11T22:10:43.288Z,100018.78
2023-03-11T22:13:10.230Z,100013.06
2023-03-11T22:15:37.264Z,100014.38
2023-03-11T22:18:04.318Z,100006.75
2023-03-11T22:20:31.244Z,100004.91
2023-03-11T22:22:58.048Z,100005.50
2023-03-11T22:25:25.185Z,99995.84
2023-03-11T22:27:52.125Z,99993.44
2023-03-11T22:30:18.886Z,99995.84
2023-03-11T22:32:45.743Z,99993.97
2023-03-11T22:35:12.569Z,99988.91
2023-03-11T22:37:39.414Z,99987.03
2023-03-11T22:40:07.992Z,99979.28
2023-03-11T22:42:34.934Z,99972.84
2023-03-11T22:45:01.676Z,99969.63
2023-03-11T22:47:28.451Z,99963.84
2023-03-11T22:49:55.235Z,99956.31
2023-03-11T22:52:22.109Z,99958.97
2023-03-11T22:54:48.990Z,99955.81
2023-03-11T22:57:16.014Z,99941.78
2023-03-11T22:59:42.792Z,99944.88
2023-03-11T23:02:09.582Z,99939.53
2023-03-11T23:04:36.352Z,99943.63
2023-03-11T23:07:03.150Z,99943.94
2023-03-11T23:09:29.953Z,99950.97
2023-03-11T23:11:56.730Z,99947.56
2023-03-11T23:14:30.651Z,99919.59
2023-03-11T23:17:04.893Z,99935.94
2023-03-11T23:19:31.676Z,99920.88
2023-03-11T23:21:58.552Z,99924.09
2023-03-11T23:24:25.411Z,99919.78
2023-03-11T23:26:52.190Z,99940.81
2023-03-11T23:29:18.951Z,99934.91
2023-03-11T23:31:45.770Z,99946.69
2023-03-11T23:34:12.530Z,99935.44
2023-03-11T23:36:39.292Z,99932.34
2023-03-11T23:39:06.132Z,99941.53
2023-03-11T23:41:33.012Z,99940.72
2023-03-11T23:43:59.924Z,99947.13
2023-03-11T23:46:26.890Z,99950.44
2023-03-11T23:48:53.753Z,99951.09
2023-03-11T23:51:20.549Z,99951.78
2023-03-11T23:53:47.349Z,99948.22
2023-03-11T23:56:16.952Z,99948.66
2023-03-11T23:58:43.966Z,99936.50
